ENXN weather

Jotun A Platform
Norway

Public forecast

Using degrees Celsius for public forecast. Weather courtesy of forecast.io.

METAR (pilot weather report)

Closest report is Ula Platform, 25.2 nm (46.6 km) SE. Retrieved 2019/05/24 10:20 UTC (0 seconds ago):

ENLA 241020Z AUTO 29020KT 9999NDV FEW014/// BKN024/// 11/08 Q1009 W///S4

TAF (pilot weather forecast)

Closest forecast is Oseberg A Platform, 64.0 nm (118.5 km) NNE. Retrieved 2019/05/24 09:57 UTC (23 minutes ago):

TAF TAF ENOA 240800Z 2409/2509 36022KT 9999 BKN010 PROB40 2409/2421 BKN004 BECMG 2504/2506 SCT010 BKN020 PROB40 TEMPO 2504/2509 SHRA BKN012CB